createdAt,value
2023-03-16T00:03:50.215Z,22.52
2023-03-16T00:08:51.587Z,22.52
2023-03-16T00:13:52.955Z,22.43
2023-03-16T00:18:54.351Z,22.46
2023-03-16T00:23:55.812Z,22.54
2023-03-16T00:28:57.284Z,22.57
2023-03-16T00:33:58.683Z,22.45
2023-03-16T00:39:00.121Z,22.44
2023-03-16T00:44:01.539Z,22.49
2023-03-16T00:49:03.121Z,22.51
2023-03-16T00:54:05.466Z,22.48
2023-03-16T00:59:08.726Z,22.43
2023-03-16T01:04:10.805Z,22.45
2023-03-16T01:09:12.356Z,22.50
2023-03-16T01:14:13.747Z,22.45
2023-03-16T01:19:15.384Z,22.45
2023-03-16T01:24:16.762Z,22.51
2023-03-16T01:29:18.151Z,22.53
2023-03-16T01:34:19.545Z,22.49
2023-03-16T01:39:20.949Z,22.48
2023-03-16T01:44:30.277Z,22.49
2023-03-16T01:49:36.510Z,22.55
2023-03-16T01:55:02.671Z,22.49
2023-03-16T02:00:19.311Z,22.38
2023-03-16T02:05:26.814Z,22.43
2023-03-16T02:10:28.514Z,22.51
2023-03-16T02:15:30.065Z,22.52
2023-03-16T02:21:05.867Z,22.43
2023-03-16T02:26:28.902Z,22.46
2023-03-16T02:31:30.338Z,22.51
2023-03-16T02:36:31.816Z,22.49
2023-03-16T02:41:33.196Z,22.45
2023-03-16T02:46:35.623Z,22.50
2023-03-16T02:51:37.103Z,22.53
2023-03-16T02:56:39.067Z,22.45
2023-03-16T03:01:40.470Z,22.41
2023-03-16T03:06:41.915Z,22.48
2023-03-16T03:11:43.327Z,22.52
2023-03-16T03:16:46.522Z,22.47
2023-03-16T03:21:48.212Z,22.44
2023-03-16T03:26:49.582Z,22.52
2023-03-16T03:31:51.005Z,22.53
2023-03-16T03:36:53.639Z,22.57
2023-03-16T03:41:55.016Z,22.42
2023-03-16T03:46:56.442Z,22.47
2023-03-16T03:51:59.105Z,22.51
2023-03-16T03:57:00.543Z,22.52
2023-03-16T04:02:02.004Z,22.43
2023-03-16T04:07:03.835Z,22.43
2023-03-16T04:12:05.682Z,22.50
2023-03-16T04:17:07.327Z,22.51
2023-03-16T04:22:08.763Z,22.42
2023-03-16T04:27:11.937Z,22.47
2023-03-16T04:32:13.368Z,22.50
2023-03-16T04:37:14.747Z,22.51
2023-03-16T04:42:16.130Z,22.42
2023-03-16T04:47:17.566Z,22.42
2023-03-16T04:52:18.985Z,22.52
2023-03-16T04:57:20.416Z,22.49
2023-03-16T05:02:21.788Z,22.41
2023-03-16T05:07:23.182Z,22.42
2023-03-16T05:12:24.640Z,22.47
2023-03-16T05:17:26.040Z,22.46
2023-03-16T05:22:27.422Z,22.39
2023-03-16T05:27:28.811Z,22.44
2023-03-16T05:32:31.074Z,22.51
2023-03-16T05:37:32.728Z,22.51
2023-03-16T05:42:34.646Z,22.44
2023-03-16T05:47:37.329Z,22.45
2023-03-16T05:52:38.963Z,22.51
2023-03-16T05:57:41.319Z,22.53
2023-03-16T06:02:43.215Z,22.47
2023-03-16T06:07:44.797Z,22.46
2023-03-16T06:12:47.420Z,22.53
2023-03-16T06:17:48.905Z,22.53
2023-03-16T06:22:50.333Z,22.50
2023-03-16T06:27:51.737Z,22.49
2023-03-16T06:32:53.228Z,22.56
2023-03-16T06:37:54.627Z,22.56
2023-03-16T06:42:55.997Z,22.52
2023-03-16T06:47:57.434Z,22.43
2023-03-16T06:52:58.830Z,22.55
2023-03-16T06:58:00.238Z,22.55
2023-03-16T07:03:01.908Z,22.49
2023-03-16T07:08:04.737Z,22.43
2023-03-16T07:13:06.167Z,22.50
2023-03-16T07:18:07.616Z,22.51
2023-03-16T07:23:08.991Z,22.56
2023-03-16T07:28:11.523Z,22.50
2023-03-16T07:33:12.989Z,22.62
2023-03-16T07:38:14.466Z,22.65
2023-03-16T07:43:15.955Z,22.77
2023-03-16T07:48:17.566Z,22.79
2023-03-16T07:53:18.956Z,22.85
2023-03-16T07:58:20.374Z,22.87
2023-03-16T08:03:22.513Z,22.84
2023-03-16T08:08:23.974Z,22.95
2023-03-16T08:13:27.035Z,22.94
2023-03-16T08:18:29.771Z,22.91
2023-03-16T08:23:33.410Z,22.98
2023-03-16T08:28:35.968Z,22.98
2023-03-16T08:33:37.397Z,22.99
2023-03-16T08:38:39.962Z,23.07
2023-03-16T08:43:42.215Z,23.04
2023-03-16T08:48:43.630Z,22.99
2023-03-16T08:53:45.212Z,23.04
2023-03-16T08:58:47.135Z,23.09
2023-03-16T09:03:48.586Z,23.00
2023-03-16T09:08:50.569Z,23.04
2023-03-16T09:13:53.121Z,23.11
2023-03-16T09:18:55.809Z,23.06
2023-03-16T09:23:57.211Z,23.07
2023-03-16T09:28:58.653Z,23.08
2023-03-16T09:34:00.088Z,23.05
2023-03-16T09:39:03.099Z,23.13
2023-03-16T09:44:29.094Z,23.11
2023-03-16T09:49:36.687Z,23.09
2023-03-16T09:54:49.296Z,23.10
2023-03-16T09:59:50.711Z,23.15
2023-03-16T10:05:12.342Z,23.14
2023-03-16T10:10:14.404Z,23.21
2023-03-16T10:15:29.581Z,23.17
2023-03-16T10:20:33.013Z,23.21
2023-03-16T10:25:56.097Z,23.15
2023-03-16T10:30:58.994Z,23.17
2023-03-16T10:36:05.523Z,23.21
2023-03-16T10:41:22.592Z,23.21
2023-03-16T10:46:25.700Z,23.23
2023-03-16T10:51:36.718Z,23.23
2023-03-16T10:56:38.257Z,23.12
2023-03-16T11:01:39.772Z,23.08
2023-03-16T11:06:56.427Z,23.12
2023-03-16T11:11:57.912Z,23.02
2023-03-16T11:17:05.614Z,23.11
2023-03-16T11:22:25.076Z,23.15
2023-03-16T11:27:54.024Z,23.21
2023-03-16T11:32:55.684Z,23.11
2023-03-16T11:38:13.904Z,23.14
2023-03-16T11:43:35.026Z,23.03
2023-03-16T11:49:07.531Z,23.03
2023-03-16T11:54:30.683Z,23.05
2023-03-16T11:59:55.373Z,22.99
2023-03-16T12:05:09.428Z,22.95
2023-03-16T12:10:38.957Z,22.85
2023-03-16T12:15:44.874Z,22.81
2023-03-16T12:20:57.638Z,22.75
2023-03-16T12:26:03.337Z,22.75
2023-03-16T12:31:12.288Z,22.73
2023-03-16T12:36:19.520Z,22.67
2023-03-16T12:41:30.051Z,22.72
2023-03-16T12:46:59.476Z,22.65
2023-03-16T12:52:05.239Z,22.71
2023-03-16T12:57:07.123Z,22.69
2023-03-16T13:02:22.070Z,22.76
2023-03-16T13:07:24.392Z,22.82
2023-03-16T13:12:36.692Z,22.79
2023-03-16T13:17:39.231Z,22.82
2023-03-16T13:22:53.050Z,22.80
2023-03-16T13:27:55.759Z,22.79
2023-03-16T13:33:19.530Z,22.80
2023-03-16T13:38:22.573Z,22.90
2023-03-16T13:43:28.781Z,22.87
2023-03-16T13:48:30.182Z,22.82
2023-03-16T13:53:32.800Z,22.75
2023-03-16T13:58:37.717Z,22.91
2023-03-16T14:03:39.651Z,22.86
2023-03-16T14:08:41.069Z,22.91
2023-03-16T14:13:42.693Z,22.86
2023-03-16T14:18:48.520Z,22.87
2023-03-16T14:23:55.026Z,22.90
2023-03-16T14:29:06.198Z,22.87
2023-03-16T14:34:21.200Z,22.80
2023-03-16T14:39:22.685Z,22.79
2023-03-16T14:44:30.645Z,22.78
2023-03-16T14:49:38.398Z,22.78
2023-03-16T14:54:39.788Z,22.71
2023-03-16T14:59:41.405Z,22.74
2023-03-16T15:04:43.319Z,22.74
2023-03-16T15:09:45.872Z,22.77
2023-03-16T15:15:05.726Z,22.87
2023-03-16T15:20:07.497Z,22.93
2023-03-16T15:25:24.109Z,23.05
2023-03-16T15:30:26.797Z,22.95
2023-03-16T15:35:28.276Z,22.90
2023-03-16T15:40:30.094Z,22.88
2023-03-16T15:45:31.822Z,22.80
2023-03-16T15:50:33.192Z,22.76
2023-03-16T15:55:41.951Z,22.74
2023-03-16T16:00:43.387Z,22.68
2023-03-16T16:05:44.809Z,22.68
2023-03-16T16:10:46.636Z,22.63
2023-03-16T16:15:48.798Z,22.63
2023-03-16T16:20:51.168Z,22.58
2023-03-16T16:25:56.575Z,22.59
2023-03-16T16:30:58.375Z,22.55
2023-03-16T16:36:01.851Z,22.52
2023-03-16T16:41:06.680Z,22.61
2023-03-16T16:46:14.047Z,22.60
2023-03-16T16:51:23.317Z,22.50
2023-03-16T16:56:32.379Z,22.47
2023-03-16T17:01:34.824Z,22.53
2023-03-16T17:06:36.286Z,22.49
2023-03-16T17:11:37.697Z,22.46
2023-03-16T17:16:39.186Z,22.45
2023-03-16T17:21:41.904Z,22.47
2023-03-16T17:26:45.142Z,22.50
2023-03-16T17:31:46.571Z,22.49
2023-03-16T17:36:47.947Z,22.50
2023-03-16T17:41:52.004Z,22.43
2023-03-16T17:46:54.275Z,22.48
2023-03-16T17:51:55.749Z,22.50
2023-03-16T17:56:57.472Z,22.56
2023-03-16T18:01:58.898Z,22.49
2023-03-16T18:07:00.315Z,22.52
2023-03-16T18:12:01.926Z,22.58
2023-03-16T18:17:07.585Z,22.62
2023-03-16T18:22:27.737Z,22.53
2023-03-16T18:27:29.129Z,22.50
2023-03-16T18:32:30.548Z,22.51
2023-03-16T18:37:32.445Z,22.56
2023-03-16T18:42:33.944Z,22.62
2023-03-16T18:47:35.701Z,22.55
2023-03-16T18:52:37.778Z,22.50
2023-03-16T18:57:39.862Z,22.51
2023-03-16T19:02:41.520Z,22.63
2023-03-16T19:07:44.409Z,22.63
2023-03-16T19:12:45.842Z,22.55
2023-03-16T19:17:47.636Z,22.47
2023-03-16T19:22:49.587Z,22.57
2023-03-16T19:27:51.136Z,22.63
2023-03-16T19:32:52.769Z,22.59
2023-03-16T19:37:54.171Z,22.50
2023-03-16T19:42:55.556Z,22.51
2023-03-16T19:47:56.923Z,22.57
2023-03-16T19:52:58.490Z,22.61
2023-03-16T19:58:01.797Z,22.58
2023-03-16T20:03:03.194Z,22.50
2023-03-16T20:08:13.161Z,22.54
2023-03-16T20:13:14.554Z,22.58
2023-03-16T20:18:16.224Z,22.62
2023-03-16T20:23:22.916Z,22.55
2023-03-16T20:28:27.229Z,22.51
2023-03-16T20:33:28.711Z,22.52
2023-03-16T20:38:30.157Z,22.64
2023-03-16T20:43:31.946Z,22.64
2023-03-16T20:48:34.020Z,22.52
2023-03-16T20:53:35.818Z,22.52
2023-03-16T20:58:37.884Z,22.57
2023-03-16T21:03:39.378Z,22.62
2023-03-16T21:08:40.766Z,22.53
2023-03-16T21:13:42.254Z,22.51
2023-03-16T21:18:43.633Z,22.52
2023-03-16T21:23:45.037Z,22.60
2023-03-16T21:28:55.531Z,22.59
2023-03-16T21:33:56.981Z,22.54
2023-03-16T21:38:58.529Z,22.53
2023-03-16T21:43:59.914Z,22.55
2023-03-16T21:49:03.676Z,22.59
2023-03-16T21:54:07.882Z,22.63
2023-03-16T21:59:10.640Z,22.56
2023-03-16T22:04:15.402Z,22.49
2023-03-16T22:09:18.498Z,22.59
2023-03-16T22:14:20.088Z,22.58
2023-03-16T22:19:22.102Z,22.57
2023-03-16T22:24:24.930Z,22.51
2023-03-16T22:29:28.158Z,22.50
2023-03-16T22:34:48.645Z,22.58
2023-03-16T22:39:50.197Z,22.63
2023-03-16T22:44:51.631Z,22.55
2023-03-16T22:49:53.604Z,22.46
2023-03-16T22:54:54.998Z,22.53
2023-03-16T22:59:56.388Z,22.58
2023-03-16T23:04:57.813Z,22.57
2023-03-16T23:09:59.234Z,22.48
2023-03-16T23:15:00.979Z,22.54
2023-03-16T23:20:04.080Z,22.61
2023-03-16T23:25:05.957Z,22.65
2023-03-16T23:30:23.979Z,22.60
2023-03-16T23:35:27.321Z,22.50
2023-03-16T23:40:29.149Z,22.56
2023-03-16T23:45:33.701Z,22.60
2023-03-16T23:50:35.645Z,22.54
2023-03-16T23:55:37.151Z,22.52
